Wilton, North Dakota
Current Conditions -  °F | °C
As of 6:52 PM on Tuesday 27 Jan 2015 (Local Time) from KBIS Reporting Station
Clear Clear  
Wind Chill: 36°   Ceiling: Unl
Heat Index: 39°   Visibility: 10mi
Dew Point: 32°   Wind: 5mph
Humidity: 76%   Direction: 110°ESE
Pressure: 29.81"   Gusts: NA
Location:  47.16°N, 100.78°W
Report Text: KBIS 280052Z 11004KT 10SM CLR 04/00 A2981 RMK AO2 SLP112 T00390000
Loading
Personal Weather Stations






























Interactive Weather Map New forecast layout! Learn more

10-Day Weather Forecast

Advertisements
Track Severe Weather on mobile